createdAt,value
2018-10-21T00:02:24.178Z,66.53
2018-10-21T00:04:52.388Z,69.80
2018-10-21T00:07:20.916Z,64.17
2018-10-21T00:09:48.842Z,63.00
2018-10-21T00:12:16.959Z,61.30
2018-10-21T00:14:45.231Z,64.83
2018-10-21T00:17:13.516Z,65.47
2018-10-21T00:19:42.076Z,62.70
2018-10-21T00:22:10.067Z,66.70
2018-10-21T00:24:38.251Z,64.70
2018-10-21T00:27:06.780Z,68.43
2018-10-21T00:29:34.838Z,69.37
2018-10-21T00:32:02.982Z,69.97
2018-10-21T00:34:31.239Z,67.23
2018-10-21T00:36:59.543Z,67.40
2018-10-21T00:39:27.771Z,68.77
2018-10-21T00:41:56.095Z,66.57
2018-10-21T00:44:24.298Z,69.27
2018-10-21T00:46:52.398Z,63.47
2018-10-21T00:49:20.670Z,65.07
2018-10-21T00:51:48.743Z,58.60
2018-10-21T00:54:16.776Z,58.50
2018-10-21T00:56:46.079Z,53.47
2018-10-21T00:59:13.790Z,54.83
2018-10-21T01:01:42.432Z,55.37
2018-10-21T01:04:10.687Z,51.50
2018-10-21T01:06:38.874Z,51.57
2018-10-21T01:09:10.999Z,51.80
2018-10-21T01:11:39.943Z,49.13
2018-10-21T01:14:08.130Z,47.07
2018-10-21T01:16:36.739Z,46.53
2018-10-21T01:19:05.343Z,50.17
2018-10-21T01:21:33.664Z,51.37
2018-10-21T01:24:02.164Z,52.40
2018-10-21T01:26:30.318Z,54.37
2018-10-21T01:28:58.447Z,58.77
2018-10-21T01:31:26.768Z,61.20
2018-10-21T01:33:54.965Z,62.63
2018-10-21T01:36:23.056Z,61.03
2018-10-21T01:38:51.355Z,60.03
2018-10-21T01:41:19.663Z,56.53
2018-10-21T01:43:48.120Z,56.87
2018-10-21T01:46:16.088Z,57.70
2018-10-21T01:48:44.263Z,57.27
2018-10-21T01:51:12.590Z,55.77
2018-10-21T01:53:40.615Z,69.83
2018-10-21T01:56:09.091Z,54.70
2018-10-21T01:58:37.082Z,54.43
2018-10-21T02:01:05.096Z,53.53
2018-10-21T02:03:33.435Z,53.33
2018-10-21T02:06:01.520Z,54.40
2018-10-21T02:08:29.631Z,57.97
2018-10-21T02:10:57.911Z,53.67
2018-10-21T02:13:26.347Z,54.17
2018-10-21T02:15:54.667Z,52.60
2018-10-21T02:18:22.916Z,49.83
2018-10-21T02:20:51.354Z,49.67
2018-10-21T02:23:19.407Z,51.70
2018-10-21T02:25:47.169Z,51.67
2018-10-21T02:28:15.193Z,50.50
2018-10-21T02:30:43.530Z,49.63
2018-10-21T02:33:11.596Z,49.50
2018-10-21T02:35:39.849Z,54.57
2018-10-21T02:38:08.166Z,50.93
2018-10-21T02:41:45.079Z,49.10
2018-10-21T02:44:17.409Z,51.97
2018-10-21T02:46:46.276Z,51.00
2018-10-21T02:49:15.116Z,49.33
2018-10-21T02:51:48.111Z,51.77
2018-10-21T02:54:20.844Z,52.27
2018-10-21T02:56:48.983Z,51.13
2018-10-21T02:59:17.487Z,51.83
2018-10-21T03:01:45.934Z,52.00
2018-10-21T03:04:14.249Z,53.80
2018-10-21T03:06:42.728Z,52.37
2018-10-21T03:09:10.956Z,56.07
2018-10-21T03:11:39.271Z,58.57
2018-10-21T03:14:07.548Z,57.37
2018-10-21T03:16:35.811Z,58.80
2018-10-21T03:19:04.352Z,56.53
2018-10-21T03:21:32.550Z,55.97
2018-10-21T03:24:00.828Z,57.90
2018-10-21T03:26:29.174Z,59.90
2018-10-21T03:28:57.590Z,56.63
2018-10-21T03:31:25.818Z,63.83
2018-10-21T03:33:54.063Z,59.20
2018-10-21T03:36:22.239Z,58.73
2018-10-21T03:38:50.486Z,62.43
2018-10-21T03:41:18.815Z,85.73
2018-10-21T03:43:47.035Z,71.70
2018-10-21T03:46:15.909Z,76.37
2018-10-21T03:48:44.212Z,69.07
2018-10-21T03:51:13.038Z,64.47
2018-10-21T03:53:41.548Z,60.80
2018-10-21T03:56:09.860Z,59.47
2018-10-21T03:58:38.151Z,54.97
2018-10-21T04:01:06.588Z,53.90
2018-10-21T04:03:35.212Z,50.87
2018-10-21T04:06:03.358Z,48.37
2018-10-21T04:08:31.609Z,49.73
2018-10-21T04:10:59.791Z,48.53
2018-10-21T04:13:27.675Z,43.43
2018-10-21T04:15:56.085Z,44.33
2018-10-21T04:18:24.379Z,43.23
2018-10-21T04:20:52.834Z,40.80
2018-10-21T04:23:21.078Z,38.93
2018-10-21T04:25:49.676Z,39.40
2018-10-21T04:28:17.774Z,40.20
2018-10-21T04:30:46.107Z,37.97
2018-10-21T04:33:46.192Z,39.30
2018-10-21T04:36:16.259Z,39.03
2018-10-21T04:38:55.694Z,37.43
2018-10-21T04:41:23.831Z,38.60
2018-10-21T04:43:51.884Z,39.63
2018-10-21T04:46:20.014Z,38.53
2018-10-21T04:48:48.158Z,40.23
2018-10-21T04:51:16.345Z,39.10
2018-10-21T04:53:44.839Z,39.60
2018-10-21T04:56:13.105Z,37.43
2018-10-21T04:58:41.374Z,40.40
2018-10-21T05:01:09.531Z,37.93
2018-10-21T05:03:37.720Z,39.37
2018-10-21T05:06:05.979Z,38.80
2018-10-21T05:08:34.052Z,38.33
2018-10-21T05:11:02.138Z,37.63
2018-10-21T05:13:30.214Z,37.07
2018-10-21T05:15:58.438Z,38.93
2018-10-21T05:18:26.763Z,41.83
2018-10-21T05:20:55.050Z,48.13
2018-10-21T05:23:23.329Z,42.00
2018-10-21T05:25:51.587Z,40.07
2018-10-21T05:28:19.675Z,40.90
2018-10-21T05:30:49.803Z,43.18
2018-10-21T05:33:18.091Z,42.43
2018-10-21T05:35:46.608Z,38.50
2018-10-21T05:38:14.841Z,41.90
2018-10-21T05:40:43.384Z,39.73
2018-10-21T05:43:11.542Z,38.73
2018-10-21T05:45:39.960Z,40.17
2018-10-21T05:48:08.161Z,41.10
2018-10-21T05:50:36.422Z,43.87
2018-10-21T05:53:04.752Z,44.23
2018-10-21T05:55:32.943Z,46.93
2018-10-21T05:58:01.501Z,43.87
2018-10-21T06:00:29.750Z,42.63
2018-10-21T06:02:58.271Z,45.70
2018-10-21T06:05:35.495Z,45.57
2018-10-21T06:08:03.214Z,42.93
2018-10-21T06:10:31.088Z,46.67
2018-10-21T06:12:59.111Z,45.40
2018-10-21T06:15:26.851Z,43.13
2018-10-21T06:17:54.674Z,51.20
2018-10-21T06:20:27.974Z,40.43
2018-10-21T06:22:55.835Z,44.53
2018-10-21T06:25:23.623Z,43.90
2018-10-21T06:27:51.477Z,43.43
2018-10-21T06:30:19.222Z,42.87
2018-10-21T06:32:46.996Z,38.37
2018-10-21T06:35:14.776Z,40.27
2018-10-21T06:37:42.510Z,35.87
2018-10-21T06:40:11.571Z,34.17
2018-10-21T06:42:39.370Z,33.07
2018-10-21T06:45:08.316Z,33.83
2018-10-21T06:47:36.108Z,32.83
2018-10-21T06:50:04.300Z,33.27
2018-10-21T06:52:32.045Z,31.90
2018-10-21T06:54:59.828Z,35.67
2018-10-21T06:57:27.700Z,31.40
2018-10-21T06:59:55.419Z,37.53
2018-10-21T07:02:23.167Z,38.77
2018-10-21T07:04:50.953Z,34.23
2018-10-21T07:07:18.666Z,32.37
2018-10-21T07:09:46.370Z,31.20
2018-10-21T07:12:14.078Z,33.53
2018-10-21T07:14:41.775Z,32.43
2018-10-21T07:17:09.510Z,30.33
2018-10-21T07:19:37.309Z,32.33
2018-10-21T07:22:05.154Z,33.23
2018-10-21T07:24:32.882Z,33.20
2018-10-21T07:27:00.658Z,33.80
2018-10-21T07:29:28.414Z,49.83
2018-10-21T07:31:56.215Z,54.53
2018-10-21T07:34:24.064Z,49.73
2018-10-21T07:36:51.766Z,45.90
2018-10-21T07:39:19.538Z,43.63
2018-10-21T07:41:47.455Z,43.10
2018-10-21T07:44:15.114Z,42.77
2018-10-21T07:46:42.847Z,41.57
2018-10-21T07:49:10.703Z,42.20
2018-10-21T07:51:38.383Z,39.97
2018-10-21T07:54:06.143Z,40.50
2018-10-21T07:56:33.954Z,38.77
2018-10-21T07:59:01.634Z,42.03
2018-10-21T08:01:29.446Z,40.53
2018-10-21T08:03:57.284Z,40.47
2018-10-21T08:06:37.000Z,40.20
2018-10-21T08:09:10.210Z,42.17
2018-10-21T08:11:37.991Z,39.87
2018-10-21T08:14:05.883Z,43.03
2018-10-21T08:16:33.647Z,41.90
2018-10-21T08:19:01.435Z,41.93
2018-10-21T08:21:29.190Z,41.43
2018-10-21T08:23:56.968Z,41.53
2018-10-21T08:26:24.742Z,43.90
2018-10-21T08:28:52.479Z,41.43
2018-10-21T08:31:20.263Z,41.13
2018-10-21T08:33:48.074Z,38.37
2018-10-21T08:36:15.871Z,38.13
2018-10-21T08:38:43.696Z,35.40
2018-10-21T08:41:11.475Z,36.63
2018-10-21T08:43:39.405Z,36.65
2018-10-21T08:46:07.251Z,35.50
2018-10-21T08:48:35.050Z,36.87
2018-10-21T08:51:02.817Z,34.30
2018-10-21T08:53:30.642Z,35.30
2018-10-21T08:55:58.492Z,33.90
2018-10-21T08:58:26.249Z,34.87
2018-10-21T09:00:54.183Z,34.73
2018-10-21T09:03:21.949Z,34.03
2018-10-21T09:05:49.760Z,34.70
2018-10-21T09:08:17.627Z,33.13
2018-10-21T09:10:45.515Z,33.17
2018-10-21T09:13:13.341Z,33.37
2018-10-21T09:15:41.133Z,32.87
2018-10-21T09:18:08.923Z,32.40
2018-10-21T09:20:36.730Z,32.17
2018-10-21T09:23:04.641Z,32.43
2018-10-21T09:25:32.460Z,30.63
2018-10-21T09:28:00.299Z,30.87
2018-10-21T09:30:28.117Z,30.60
2018-10-21T09:32:55.906Z,31.27
2018-10-21T09:35:23.783Z,30.93
2018-10-21T09:37:51.606Z,30.87
2018-10-21T09:42:55.833Z,29.70
2018-10-21T09:45:23.765Z,31.63
2018-10-21T09:47:51.553Z,30.57
2018-10-21T09:50:19.521Z,31.77
2018-10-21T09:52:47.427Z,29.10
2018-10-21T09:55:19.083Z,30.03
2018-10-21T09:57:47.569Z,30.07
2018-10-21T10:00:20.952Z,29.00
2018-10-21T10:02:54.116Z,30.63
2018-10-21T10:05:22.030Z,29.47
2018-10-21T10:07:49.790Z,28.33
2018-10-21T10:10:17.630Z,29.80
2018-10-21T10:12:45.478Z,29.20
2018-10-21T10:15:13.273Z,27.17
2018-10-21T10:17:41.094Z,29.97
2018-10-21T10:20:10.083Z,30.23
2018-10-21T10:22:37.903Z,30.83
2018-10-21T10:25:06.594Z,30.47
2018-10-21T10:27:34.406Z,29.20
2018-10-21T10:30:02.336Z,29.10
2018-10-21T10:32:30.155Z,29.27
2018-10-21T10:34:57.993Z,28.43
2018-10-21T10:37:25.804Z,28.87
2018-10-21T10:39:53.627Z,28.63
2018-10-21T10:42:21.528Z,28.77
2018-10-21T10:44:49.307Z,30.80
2018-10-21T10:47:17.217Z,27.50
2018-10-21T10:49:45.073Z,28.97
2018-10-21T10:52:13.004Z,29.20
2018-10-21T10:54:40.761Z,26.20
2018-10-21T10:57:08.576Z,26.80
2018-10-21T10:59:36.413Z,25.17
2018-10-21T11:02:04.636Z,26.67
2018-10-21T11:04:32.602Z,27.83
2018-10-21T11:07:00.522Z,26.67
2018-10-21T11:09:28.981Z,26.73
2018-10-21T11:11:56.809Z,25.87
2018-10-21T11:14:24.591Z,24.33
2018-10-21T11:16:52.376Z,25.27
2018-10-21T11:19:22.966Z,25.40
2018-10-21T11:21:50.925Z,24.30
2018-10-21T11:24:18.651Z,24.33
2018-10-21T11:26:46.553Z,22.47
2018-10-21T11:29:14.388Z,24.53
2018-10-21T11:31:42.205Z,22.27
2018-10-21T11:34:10.098Z,22.80
2018-10-21T11:36:37.966Z,22.50
2018-10-21T11:39:07.133Z,22.07
2018-10-21T11:41:34.980Z,23.03
2018-10-21T11:44:02.946Z,23.77
2018-10-21T11:46:30.821Z,24.83
2018-10-21T11:48:58.808Z,23.60
2018-10-21T11:51:26.653Z,21.60
2018-10-21T11:53:54.462Z,21.97
2018-10-21T11:56:22.349Z,20.33
2018-10-21T11:58:50.136Z,21.50
2018-10-21T12:01:18.015Z,22.03
2018-10-21T12:03:45.843Z,21.57
2018-10-21T12:06:13.686Z,21.00
2018-10-21T12:08:41.473Z,20.63
2018-10-21T12:11:09.319Z,21.37
2018-10-21T12:13:37.107Z,21.90
2018-10-21T12:16:05.518Z,22.63
2018-10-21T12:18:33.302Z,21.60
2018-10-21T12:21:01.127Z,21.80
2018-10-21T12:23:28.939Z,21.63
2018-10-21T12:25:56.904Z,22.10
2018-10-21T12:28:24.721Z,23.40
2018-10-21T12:30:52.548Z,23.03
2018-10-21T12:33:20.369Z,23.00
2018-10-21T12:35:48.207Z,21.07
2018-10-21T12:38:16.050Z,23.60
2018-10-21T12:40:43.883Z,29.20
2018-10-21T12:43:11.719Z,30.77
2018-10-21T12:45:38.789Z,45.00
2018-10-21T12:48:06.644Z,33.37
2018-10-21T12:50:34.507Z,33.53
2018-10-21T12:53:02.354Z,24.90
2018-10-21T12:55:30.179Z,26.50
2018-10-21T12:57:57.979Z,35.53
2018-10-21T13:00:25.787Z,43.57
2018-10-21T13:02:53.636Z,39.37
2018-10-21T13:05:21.440Z,35.20
2018-10-21T13:07:49.330Z,37.20
2018-10-21T13:10:17.278Z,30.03
2018-10-21T13:12:45.043Z,33.60
2018-10-21T13:15:12.782Z,31.07
2018-10-21T13:17:40.621Z,27.63
2018-10-21T13:20:08.419Z,27.37
2018-10-21T13:22:36.214Z,26.47
2018-10-21T13:25:04.191Z,26.70
2018-10-21T13:27:31.971Z,27.40
2018-10-21T13:29:59.772Z,28.23
2018-10-21T13:32:27.630Z,23.53
2018-10-21T13:34:57.653Z,25.87
2018-10-21T13:37:25.459Z,27.03
2018-10-21T13:39:53.542Z,26.73
2018-10-21T13:42:21.872Z,26.57
2018-10-21T13:44:50.137Z,26.33
2018-10-21T13:47:18.028Z,25.27
2018-10-21T13:49:46.134Z,25.30
2018-10-21T13:52:14.271Z,26.67
2018-10-21T13:54:41.920Z,25.77
2018-10-21T13:57:09.742Z,27.40
2018-10-21T13:59:40.984Z,26.27
2018-10-21T14:02:08.868Z,26.53
2018-10-21T14:04:36.649Z,26.07
2018-10-21T14:07:04.647Z,26.27
2018-10-21T14:09:32.504Z,25.95
2018-10-21T14:12:00.288Z,27.83
2018-10-21T14:14:28.079Z,27.13
2018-10-21T14:16:55.893Z,29.23
2018-10-21T14:19:23.692Z,29.03
2018-10-21T14:21:51.469Z,30.30
2018-10-21T14:24:19.476Z,30.00
2018-10-21T14:26:47.106Z,32.10
2018-10-21T14:29:14.881Z,31.20
2018-10-21T14:31:42.752Z,32.60
2018-10-21T14:34:10.535Z,33.93
2018-10-21T14:36:38.299Z,31.33
2018-10-21T14:39:09.509Z,32.70
2018-10-21T14:41:37.699Z,33.23
2018-10-21T14:44:05.915Z,31.23
2018-10-21T14:46:33.816Z,31.17
2018-10-21T14:49:01.623Z,31.67
2018-10-21T14:51:29.402Z,30.30
2018-10-21T14:53:57.319Z,24.47
2018-10-21T14:56:25.086Z,28.17
2018-10-21T14:58:53.960Z,27.22
2018-10-21T15:01:21.800Z,25.80
2018-10-21T15:03:49.585Z,22.40
2018-10-21T15:06:17.394Z,22.70
2018-10-21T15:08:45.243Z,24.80
2018-10-21T15:11:13.029Z,25.37
2018-10-21T15:13:40.857Z,21.97
2018-10-21T15:16:08.779Z,20.77
2018-10-21T15:18:36.506Z,21.90
2018-10-21T15:21:04.538Z,25.40
2018-10-21T15:23:32.329Z,24.33
2018-10-21T15:26:00.173Z,21.40
2018-10-21T15:28:27.964Z,22.77
2018-10-21T15:30:55.815Z,22.03
2018-10-21T15:33:23.607Z,20.73
2018-10-21T15:35:51.425Z,22.40
2018-10-21T15:38:19.306Z,22.60
2018-10-21T15:40:47.057Z,22.67
2018-10-21T15:43:14.809Z,23.90
2018-10-21T15:45:42.713Z,22.07
2018-10-21T15:48:10.458Z,23.00
2018-10-21T15:50:38.343Z,23.40
2018-10-21T15:53:06.195Z,24.13
2018-10-21T15:55:34.121Z,22.83
2018-10-21T15:58:02.012Z,24.57
2018-10-21T16:00:29.797Z,23.47
2018-10-21T16:02:57.593Z,22.87
2018-10-21T16:05:25.459Z,23.63
2018-10-21T16:07:53.287Z,23.83
2018-10-21T16:10:21.063Z,23.73
2018-10-21T16:12:48.891Z,24.83
2018-10-21T16:15:16.992Z,24.63
2018-10-21T16:17:45.895Z,25.93
2018-10-21T16:20:14.339Z,26.13
2018-10-21T16:22:43.237Z,22.53
2018-10-21T16:25:13.081Z,24.27
2018-10-21T16:27:41.078Z,30.30
2018-10-21T16:30:11.234Z,38.37
2018-10-21T16:32:39.505Z,45.93
2018-10-21T16:35:07.919Z,44.43
2018-10-21T16:37:35.879Z,47.40
2018-10-21T16:40:03.699Z,47.43
2018-10-21T16:42:31.492Z,41.40
2018-10-21T16:44:59.402Z,42.73
2018-10-21T16:47:27.175Z,47.67
2018-10-21T16:49:54.941Z,34.70
2018-10-21T16:52:22.774Z,40.10
2018-10-21T16:54:50.575Z,76.33
2018-10-21T16:57:18.559Z,58.43
2018-10-21T16:59:46.421Z,44.80
2018-10-21T17:02:14.159Z,29.93
2018-10-21T17:04:41.920Z,25.67
2018-10-21T17:07:09.837Z,29.93
2018-10-21T17:09:37.913Z,27.83
2018-10-21T17:12:05.829Z,36.20
2018-10-21T17:14:33.665Z,34.13
2018-10-21T17:17:01.507Z,32.30
2018-10-21T17:19:29.460Z,32.10
2018-10-21T17:21:57.418Z,31.80
2018-10-21T17:24:25.482Z,33.77
2018-10-21T17:26:53.254Z,34.27
2018-10-21T17:29:21.107Z,33.17
2018-10-21T17:31:48.906Z,35.60
2018-10-21T17:34:16.850Z,32.70
2018-10-21T17:36:44.636Z,30.37
2018-10-21T17:39:14.503Z,31.93
2018-10-21T17:41:42.477Z,32.57
2018-10-21T17:44:10.761Z,33.70
2018-10-21T17:46:38.622Z,32.73
2018-10-21T17:49:06.586Z,31.53
2018-10-21T17:51:34.459Z,27.40
2018-10-21T17:54:02.246Z,28.20
2018-10-21T17:56:30.035Z,25.13
2018-10-21T17:58:58.199Z,25.00
2018-10-21T18:01:25.988Z,26.77
2018-10-21T18:03:53.887Z,30.00
2018-10-21T18:06:21.747Z,31.77
2018-10-21T18:08:49.607Z,34.40
2018-10-21T18:11:18.044Z,36.17
2018-10-21T18:13:45.899Z,34.73
2018-10-21T18:16:13.873Z,32.93
2018-10-21T18:18:41.649Z,34.27
2018-10-21T18:21:09.467Z,31.27
2018-10-21T18:23:37.253Z,30.87
2018-10-21T18:26:05.344Z,31.47
2018-10-21T18:28:33.248Z,31.53
2018-10-21T18:31:01.062Z,30.33
2018-10-21T18:33:28.891Z,29.87
2018-10-21T18:35:56.741Z,29.50
2018-10-21T18:38:24.551Z,29.50
2018-10-21T18:40:52.514Z,33.30
2018-10-21T18:43:20.286Z,36.63
2018-10-21T18:45:48.109Z,41.43
2018-10-21T18:48:15.996Z,40.03
2018-10-21T18:50:43.837Z,41.07
2018-10-21T18:53:11.639Z,39.97
2018-10-21T18:55:39.451Z,37.63
2018-10-21T18:58:07.361Z,34.67
2018-10-21T19:00:35.237Z,37.23
2018-10-21T19:03:03.068Z,40.37
2018-10-21T19:05:30.927Z,39.80
2018-10-21T19:07:58.711Z,43.73
2018-10-21T19:10:26.487Z,44.70
2018-10-21T19:13:00.049Z,47.30
2018-10-21T19:15:22.208Z,46.93
2018-10-21T19:17:50.622Z,46.53
2018-10-21T19:20:19.133Z,45.13
2018-10-21T19:22:47.372Z,42.90
2018-10-21T19:25:16.561Z,46.60
2018-10-21T19:27:45.732Z,46.83
2018-10-21T19:30:14.721Z,47.23
2018-10-21T19:32:43.382Z,45.90
2018-10-21T19:35:12.818Z,46.47
2018-10-21T19:37:41.337Z,48.77
2018-10-21T19:40:11.809Z,46.00
2018-10-21T19:42:40.580Z,45.00
2018-10-21T19:45:09.276Z,44.57
2018-10-21T19:47:37.078Z,42.80
2018-10-21T19:50:06.071Z,43.00
2018-10-21T19:52:33.742Z,40.13
2018-10-21T19:55:01.542Z,41.90
2018-10-21T19:57:29.379Z,43.20
2018-10-21T19:59:57.196Z,45.47
2018-10-21T20:02:25.054Z,43.03
2018-10-21T20:04:52.894Z,41.70
2018-10-21T20:07:20.723Z,39.53
2018-10-21T20:09:49.176Z,40.53
2018-10-21T20:12:17.501Z,40.70
2018-10-21T20:14:45.895Z,37.60
2018-10-21T20:17:14.147Z,35.10
2018-10-21T20:19:42.669Z,30.40
2018-10-21T20:22:11.537Z,30.87
2018-10-21T20:24:40.230Z,28.90
2018-10-21T20:27:09.197Z,24.23
2018-10-21T20:29:37.548Z,22.70
2018-10-21T20:32:06.283Z,23.30
2018-10-21T20:34:34.628Z,23.83
2018-10-21T20:37:03.075Z,24.03
2018-10-21T20:39:31.171Z,23.00
2018-10-21T20:41:59.634Z,25.23
2018-10-21T20:44:27.931Z,27.50
2018-10-21T20:46:56.335Z,27.37
2018-10-21T20:49:24.665Z,27.77
2018-10-21T20:51:52.451Z,28.17
2018-10-21T20:54:20.246Z,28.00
2018-10-21T20:56:48.091Z,28.07
2018-10-21T20:59:15.933Z,36.23
2018-10-21T21:01:43.719Z,35.77
2018-10-21T21:04:11.622Z,36.70
2018-10-21T21:06:39.888Z,40.57
2018-10-21T21:09:08.936Z,42.37
2018-10-21T21:11:37.491Z,43.20
2018-10-21T21:14:05.730Z,40.93
2018-10-21T21:16:34.202Z,44.87
2018-10-21T21:19:02.090Z,41.90
2018-10-21T21:21:29.874Z,43.40
2018-10-21T21:23:57.660Z,42.87
2018-10-21T21:26:25.498Z,42.63
2018-10-21T21:28:53.286Z,43.10
2018-10-21T21:31:21.083Z,41.40
2018-10-21T21:33:48.909Z,41.67
2018-10-21T21:36:16.740Z,40.77
2018-10-21T21:38:45.180Z,41.97
2018-10-21T21:41:13.409Z,43.30
2018-10-21T21:43:41.924Z,43.80
2018-10-21T21:46:10.421Z,43.17
2018-10-21T21:48:38.157Z,40.70
2018-10-21T21:51:06.274Z,42.57
2018-10-21T21:53:34.743Z,42.30
2018-10-21T21:56:03.273Z,41.43
2018-10-21T21:58:31.429Z,42.73
2018-10-21T22:00:59.568Z,43.20
2018-10-21T22:03:27.904Z,45.27
2018-10-21T22:05:56.136Z,47.40
2018-10-21T22:08:24.623Z,47.27
2018-10-21T22:10:52.891Z,48.87
2018-10-21T22:13:21.098Z,47.63
2018-10-21T22:15:49.182Z,47.30
2018-10-21T22:18:17.385Z,48.17
2018-10-21T22:20:45.560Z,48.10
2018-10-21T22:23:13.824Z,49.13
2018-10-21T22:25:42.179Z,48.63
2018-10-21T22:28:10.458Z,51.10
2018-10-21T22:30:38.660Z,49.67
2018-10-21T22:33:07.019Z,49.23
2018-10-21T22:35:35.238Z,50.63
2018-10-21T22:38:03.575Z,48.43
2018-10-21T22:40:31.823Z,49.60
2018-10-21T22:43:00.019Z,51.53
2018-10-21T22:45:28.332Z,52.23
2018-10-21T22:47:56.682Z,49.37
2018-10-21T22:50:25.062Z,50.57
2018-10-21T22:52:53.160Z,50.13
2018-10-21T22:55:21.658Z,51.37
2018-10-21T22:57:49.864Z,50.80
2018-10-21T23:00:18.037Z,51.17
2018-10-21T23:02:50.886Z,50.90
2018-10-21T23:05:19.142Z,49.17
2018-10-21T23:07:47.244Z,49.27
2018-10-21T23:10:15.773Z,50.20
2018-10-21T23:12:43.896Z,50.20
2018-10-21T23:15:12.231Z,52.10
2018-10-21T23:17:40.712Z,51.20
2018-10-21T23:20:09.197Z,50.10
2018-10-21T23:22:37.598Z,50.10
2018-10-21T23:25:06.422Z,50.17
2018-10-21T23:27:34.751Z,47.93
2018-10-21T23:30:02.629Z,50.53
2018-10-21T23:32:30.747Z,50.30
2018-10-21T23:34:59.203Z,49.10
2018-10-21T23:37:27.434Z,49.37
2018-10-21T23:39:55.586Z,50.27
2018-10-21T23:42:23.791Z,48.27
2018-10-21T23:44:52.135Z,50.13
2018-10-21T23:47:20.351Z,49.07
2018-10-21T23:49:48.663Z,50.00
2018-10-21T23:52:17.132Z,48.53
2018-10-21T23:54:45.228Z,49.27
2018-10-21T23:57:13.507Z,48.27
2018-10-21T23:59:41.727Z,49.23
